Time;durP1;ratioP1;P1;durP2;ratioP2;P2;SDS_P1;SDS_P2;PMS_P1;PMS_P2;Temp;Humidity;BMP_temperature;BMP_pressure;BME280_temperature;BME280_humidity;BME280_pressure;Samples;Min_cycle;Max_cycle;Signal;HPM_P1;HPM_P2
2022/05/24 00:01:26;;;;;;;1.40;1.40;;;;;;;17.75;92.54;98517.34;5054896;28;20204;-77
2022/05/24 00:03:52;;;;;;;1.97;1.87;;;;;;;17.71;93.16;98513.25;5054562;28;20228;-77
2022/05/24 00:06:19;;;;;;;1.70;1.60;;;;;;;17.59;94.31;98499.25;5054378;28;20724;-77
2022/05/24 00:08:46;;;;;;;1.90;1.70;;;;;;;17.54;94.15;98514.63;5054302;28;20275;-77
2022/05/24 00:11:13;;;;;;;1.87;1.77;;;;;;;17.52;93.83;98548.19;5054429;28;20675;-77
2022/05/24 00:13:40;;;;;;;2.10;2.00;;;;;;;17.16;95.73;98533.41;5053729;28;20232;-78
2022/05/24 00:16:07;;;;;;;2.13;1.80;;;;;;;16.85;96.53;98512.88;5053849;28;20203;-76
2022/05/24 00:18:34;;;;;;;1.97;1.87;;;;;;;16.92;96.65;98536.94;5054491;28;20291;-77
2022/05/24 00:21:04;;;;;;;1.93;1.83;;;;;;;16.85;96.34;98541.03;5054152;28;20582;-77
2022/05/24 00:23:31;;;;;;;2.53;1.90;;;;;;;16.74;95.69;98578.66;5054247;28;20650;-77
2022/05/24 00:26:00;;;;;;;1.70;1.60;;;;;;;16.79;94.56;98617.88;5053949;28;20285;-77
2022/05/24 00:28:29;;;;;;;2.40;2.30;;;;;;;16.56;94.28;98627.44;5053935;28;20261;-77
2022/05/24 00:30:58;;;;;;;2.50;2.40;;;;;;;16.45;93.28;98670.34;5053990;28;20204;-76
2022/05/24 00:33:25;;;;;;;3.33;3.13;;;;;;;16.27;93.13;98696.19;5053884;28;20639;-75
2022/05/24 00:35:52;;;;;;;3.47;3.27;;;;;;;16.20;92.68;98724.75;5054194;28;20210;-76
2022/05/24 00:38:25;;;;;;;4.27;3.53;;;;;;;16.07;92.13;98737.94;5053757;28;20257;-76
2022/05/24 00:41:04;;;;;;;5.00;4.60;;;;;;;15.93;92.63;98718.78;5053148;28;20228;-76
2022/05/24 00:43:35;;;;;;;5.63;5.23;;;;;;;15.82;92.32;98732.66;5053632;28;20232;-76
2022/05/24 00:46:07;;;;;;;6.30;6.00;;;;;;;15.88;92.36;98734.88;5053622;28;20248;-76
2022/05/24 00:48:37;;;;;;;6.47;6.00;;;;;;;15.62;93.45;98719.03;5053685;28;20735;-75
2022/05/24 00:51:06;;;;;;;7.23;6.73;;;;;;;15.60;94.19;98704.28;5053550;28;20203;-76
2022/05/24 00:53:38;;;;;;;7.73;7.27;;;;;;;15.59;94.85;98686.84;5053895;28;20226;-76
2022/05/24 00:56:10;;;;;;;6.83;6.33;;;;;;;15.61;93.92;98688.41;5053746;28;20219;-76
2022/05/24 00:58:42;;;;;;;7.20;6.80;;;;;;;15.68;93.21;98717.78;5053159;28;20265;-76
2022/05/24 01:01:23;;;;;;;7.63;7.03;;;;;;;15.68;92.22;98744.94;5053337;28;20299;-76
2022/05/24 01:03:49;;;;;;;8.87;8.23;;;;;;;15.64;92.09;98776.81;5053678;28;20229;-77
2022/05/24 01:06:15;;;;;;;8.60;8.00;;;;;;;15.63;92.32;98777.75;5053241;28;20226;-76
2022/05/24 01:08:42;;;;;;;9.03;8.53;;;;;;;15.61;92.63;98784.88;5053185;28;20217;-76
2022/05/24 01:11:11;;;;;;;9.50;8.83;;;;;;;15.65;92.47;98768.78;5053229;28;20215;-75
2022/05/24 01:13:39;;;;;;;9.37;8.77;;;;;;;15.60;92.26;98797.22;5052819;28;20230;-76
2022/05/24 01:16:05;;;;;;;9.63;9.03;;;;;;;15.68;92.30;98796.69;5053257;28;20281;-76
2022/05/24 01:18:34;;;;;;;9.63;8.97;;;;;;;15.50;91.85;98804.03;5053093;28;20211;-75
2022/05/24 01:21:06;;;;;;;10.40;9.63;;;;;;;15.56;92.07;98811.50;5052780;28;21014;-76
2022/05/24 01:23:52;;;;;;;9.27;8.67;;;;;;;15.49;91.66;98815.47;5052962;28;20234;-76
2022/05/24 01:26:24;;;;;;;10.33;9.60;;;;;;;15.37;92.00;98816.28;5052993;28;20225;-76
2022/05/24 01:28:56;;;;;;;9.37;8.67;;;;;;;15.50;91.30;98835.59;5052760;28;20188;-76
2022/05/24 01:31:24;;;;;;;10.17;9.37;;;;;;;15.34;91.71;98826.97;5053040;28;20208;-76
2022/05/24 01:36:39;;;;;;;10.37;9.67;;;;;;;15.48;91.58;98843.56;5052714;28;20878;-75
2022/05/24 01:39:09;;;;;;;9.43;8.70;;;;;;;15.51;91.11;98860.09;5052252;28;20213;-77
2022/05/24 01:41:38;;;;;;;8.97;8.27;;;;;;;15.60;90.25;98875.25;5052199;28;20220;-76
2022/05/24 01:44:06;;;;;;;8.07;7.57;;;;;;;15.53;88.96;98922.16;5052584;28;20285;-77
2022/05/24 01:46:35;;;;;;;8.50;7.90;;;;;;;15.33;89.02;98944.44;5052243;28;20222;-76
2022/05/24 01:49:05;;;;;;;8.50;7.70;;;;;;;15.34;88.31;98955.81;5052401;28;20294;-77
2022/05/24 01:51:37;;;;;;;8.70;6.97;;;;;;;15.38;87.38;98981.84;5052718;28;20190;-76
2022/05/24 01:54:06;;;;;;;6.87;6.43;;;;;;;15.26;87.55;98987.81;5052572;28;20230;-75
2022/05/24 01:56:40;;;;;;;6.73;6.23;;;;;;;15.25;87.50;98981.72;5052637;28;20202;-76
2022/05/24 01:59:10;;;;;;;8.63;6.50;;;;;;;15.26;86.64;99003.59;5051693;28;20207;-76
2022/05/24 02:01:46;;;;;;;6.60;6.03;;;;;;;15.22;87.01;99012.59;5052380;28;20629;-76
2022/05/24 02:04:12;;;;;;;7.37;6.77;;;;;;;15.17;86.90;99014.69;5052219;28;20261;-76
2022/05/24 02:06:39;;;;;;;6.67;6.07;;;;;;;15.16;86.62;99024.34;5052267;28;20239;-76
2022/05/24 02:09:08;;;;;;;5.63;5.23;;;;;;;15.26;86.75;99022.88;5051843;28;20261;-76
2022/05/24 02:11:36;;;;;;;5.60;5.30;;;;;;;15.43;86.48;99027.06;5051649;28;20206;-76
2022/05/24 02:14:11;;;;;;;7.37;5.57;;;;;;;15.52;86.21;99037.97;5051980;28;20327;-77
2022/05/24 02:16:43;;;;;;;6.50;6.00;;;;;;;15.65;86.17;99047.63;5051959;28;20632;-76
2022/05/24 02:19:12;;;;;;;6.33;5.90;;;;;;;15.68;85.60;99065.84;5051885;28;20269;-75
2022/05/24 02:21:41;;;;;;;6.33;5.83;;;;;;;15.56;84.32;99103.44;5052040;28;20317;-75
2022/05/24 02:24:17;;;;;;;5.40;5.00;;;;;;;15.59;83.10;99129.53;5052082;28;20227;-76
2022/05/24 02:26:43;;;;;;;4.57;4.17;;;;;;;15.53;82.54;99155.38;5051853;28;20788;-76
2022/05/24 02:29:12;;;;;;;4.73;4.43;;;;;;;15.51;81.60;99173.03;5051513;28;20207;-77
2022/05/24 02:31:38;;;;;;;5.17;4.20;;;;;;;15.24;80.42;99223.66;5052014;28;20261;-75
2022/05/24 02:34:04;;;;;;;4.40;4.10;;;;;;;15.09;82.05;99184.19;5051953;28;20228;-76
2022/05/24 02:36:31;;;;;;;5.10;4.70;;;;;;;14.90;82.51;99178.28;5051763;28;20204;-75
2022/05/24 02:38:57;;;;;;;5.10;4.80;;;;;;;14.90;82.22;99165.16;5051718;28;20207;-76
2022/05/24 02:41:28;;;;;;;5.07;4.77;;;;;;;14.99;83.05;99148.88;5051265;28;20226;-76
2022/05/24 02:43:56;;;;;;;5.40;5.07;;;;;;;15.06;83.22;99133.59;5051124;28;20700;-76
2022/05/24 02:46:24;;;;;;;6.07;5.53;;;;;;;14.99;83.59;99127.84;5051561;28;20219;-76
2022/05/24 02:48:50;;;;;;;6.23;5.70;;;;;;;14.97;83.93;99123.63;5051638;28;20209;-76
2022/05/24 02:51:18;;;;;;;5.27;4.87;;;;;;;15.14;84.04;99120.00;5044001;28;20201;-76
2022/05/24 02:53:45;;;;;;;4.80;4.40;;;;;;;15.00;83.61;99119.00;5042208;28;20282;-75
2022/05/24 02:56:13;;;;;;;6.00;5.60;;;;;;;15.07;83.90;99122.16;5040867;28;20221;-77
2022/05/24 02:58:40;;;;;;;7.17;5.47;;;;;;;14.85;84.49;99126.03;5040265;28;20899;-76
2022/05/24 03:01:12;;;;;;;5.80;5.40;;;;;;;15.06;84.19;99116.06;5041984;28;20800;-76
2022/05/24 03:03:40;;;;;;;5.23;4.83;;;;;;;15.25;84.15;99117.59;5041798;28;20245;-76
2022/05/24 03:06:07;;;;;;;5.87;5.47;;;;;;;15.37;84.28;99114.22;5039997;28;20281;-76
2022/05/24 03:11:17;;;;;;;5.30;4.90;;;;;;;15.45;82.37;99188.22;5042296;28;20211;-76
2022/05/24 03:16:28;;;;;;;4.33;4.03;;;;;;;15.61;82.72;99192.59;5045776;28;20204;-76
2022/05/24 03:18:56;;;;;;;5.43;4.93;;;;;;;15.61;82.20;99208.38;5040884;28;20551;-76
2022/05/24 03:21:22;;;;;;;5.13;4.60;;;;;;;15.66;81.25;99230.00;5032839;28;20204;-76
2022/05/24 03:23:49;;;;;;;4.47;4.17;;;;;;;15.70;81.29;99239.41;5031446;28;20239;-76
2022/05/24 03:26:16;;;;;;;5.13;4.73;;;;;;;15.73;80.73;99251.56;5034414;28;20232;-76
2022/05/24 03:28:42;;;;;;;4.70;4.30;;;;;;;15.73;80.42;99264.72;5034821;28;20290;-76
2022/05/24 03:31:09;;;;;;;5.13;4.70;;;;;;;15.67;79.73;99287.75;5034816;28;20294;-76
2022/05/24 03:33:36;;;;;;;7.23;5.13;;;;;;;15.72;80.02;99290.16;5035030;28;20228;-75
2022/05/24 03:36:04;;;;;;;5.43;4.93;;;;;;;15.71;80.82;99261.28;5035014;28;20615;-76
2022/05/24 03:38:30;;;;;;;4.70;4.30;;;;;;;15.75;81.22;99237.34;5035297;28;20209;-76
2022/05/24 03:40:57;;;;;;;4.90;4.60;;;;;;;15.79;81.76;99224.88;5034625;28;20286;-76
2022/05/24 03:43:23;;;;;;;4.53;4.23;;;;;;;15.79;82.68;99194.13;5042486;28;20652;-76
2022/05/24 03:45:50;;;;;;;3.97;3.67;;;;;;;15.82;83.41;99180.81;5054721;28;20208;-76
2022/05/24 03:48:17;;;;;;;4.47;3.80;;;;;;;15.85;83.01;99177.13;5054986;28;20260;-76
2022/05/24 03:50:43;;;;;;;4.57;4.17;;;;;;;15.81;83.29;99176.47;5054317;28;20215;-76
2022/05/24 03:53:11;;;;;;;4.57;4.27;;;;;;;15.69;83.22;99182.44;5054830;28;20223;-76
2022/05/24 03:55:37;;;;;;;6.17;3.97;;;;;;;15.80;83.90;99163.44;5055005;28;20205;-75
2022/05/24 03:58:04;;;;;;;4.10;3.70;;;;;;;15.81;84.55;99163.31;5054759;28;20211;-76
2022/05/24 04:00:33;;;;;;;4.73;4.43;;;;;;;15.81;84.67;99154.59;5053956;28;20217;-76
2022/05/24 04:03:00;;;;;;;5.00;4.57;;;;;;;15.65;82.49;99209.88;5054465;28;20235;-76
2022/05/24 04:05:27;;;;;;;7.13;4.20;;;;;;;15.73;84.10;99183.16;5054763;28;20213;-76
2022/05/24 04:07:54;;;;;;;4.63;4.33;;;;;;;15.82;84.60;99153.66;5054396;28;20574;-76
2022/05/24 04:10:22;;;;;;;4.27;3.97;;;;;;;15.87;84.31;99147.16;5054131;28;20616;-76
2022/05/24 04:12:48;;;;;;;4.97;4.47;;;;;;;15.93;83.71;99166.97;5054243;28;20574;-76
2022/05/24 04:15:15;;;;;;;4.97;4.27;;;;;;;15.60;80.59;99241.72;5053691;28;20205;-75
2022/05/24 04:17:42;;;;;;;4.87;4.57;;;;;;;15.68;81.25;99267.59;5054440;28;20258;-75
2022/05/24 04:20:10;;;;;;;4.73;4.43;;;;;;;15.74;82.07;99214.63;5054140;28;20298;-76
2022/05/24 04:22:36;;;;;;;4.57;4.23;;;;;;;15.61;80.52;99266.25;5054419;28;20334;-76
2022/05/24 04:25:03;;;;;;;4.77;4.40;;;;;;;15.75;80.75;99265.47;5054109;28;20238;-76
2022/05/24 04:27:31;;;;;;;4.33;4.03;;;;;;;15.82;80.92;99267.66;5054204;28;20278;-76
2022/05/24 04:29:58;;;;;;;4.80;4.40;;;;;;;15.78;79.71;99295.09;5053615;28;20207;-75
2022/05/24 04:32:24;;;;;;;4.53;4.00;;;;;;;15.84;80.69;99280.72;5054039;28;20207;-75
2022/05/24 04:34:51;;;;;;;4.40;4.10;;;;;;;15.76;80.46;99299.59;5053899;28;20212;-75
2022/05/24 04:37:18;;;;;;;4.37;3.97;;;;;;;15.84;81.03;99276.28;5054047;28;20281;-76
2022/05/24 04:39:44;;;;;;;6.57;4.57;;;;;;;15.80;80.52;99272.16;5053735;28;20347;-75
2022/05/24 04:42:19;;;;;;;5.03;4.63;;;;;;;15.90;80.40;99272.47;5053451;28;20624;-75
2022/05/24 04:44:49;;;;;;;5.00;4.60;;;;;;;15.99;80.66;99274.50;5053711;28;20285;-75
2022/05/24 04:47:16;;;;;;;4.70;4.40;;;;;;;15.98;80.00;99279.91;5053777;28;20226;-75
2022/05/24 04:49:44;;;;;;;4.63;4.33;;;;;;;16.03;79.55;99281.28;5053396;28;20613;-75
2022/05/24 04:52:12;;;;;;;6.47;6.07;;;;;;;15.95;79.66;99288.81;5053602;28;20253;-75
2022/05/24 04:54:40;;;;;;;7.10;6.47;;;;;;;16.06;79.36;99298.69;5053362;28;20767;-75
2022/05/24 04:57:08;;;;;;;6.63;6.13;;;;;;;16.09;80.47;99253.75;5053750;28;20208;-76
2022/05/24 04:59:35;;;;;;;6.43;5.87;;;;;;;16.12;80.60;99244.84;5053050;28;20213;-75
2022/05/24 05:02:05;;;;;;;7.90;7.20;;;;;;;16.16;79.97;99256.88;5053521;28;20265;-76
2022/05/24 05:04:32;;;;;;;7.20;6.60;;;;;;;16.16;79.58;99270.88;5053477;28;20288;-76
2022/05/24 05:06:59;;;;;;;7.73;7.23;;;;;;;16.17;80.47;99259.38;5053049;28;20229;-76
2022/05/24 05:09:26;;;;;;;7.80;7.30;;;;;;;16.19;80.48;99240.88;5053000;28;20681;-76
2022/05/24 05:11:53;;;;;;;7.30;6.80;;;;;;;16.20;80.29;99240.78;5053232;28;20212;-75
2022/05/24 05:14:19;;;;;;;7.93;7.37;;;;;;;16.23;79.94;99261.69;5052870;28;20237;-75
2022/05/24 05:16:46;;;;;;;8.43;7.77;;;;;;;16.25;79.11;99294.03;5044692;28;20203;-76
2022/05/24 05:19:13;;;;;;;8.33;7.73;;;;;;;16.23;80.39;99261.69;5053048;28;20219;-76
2022/05/24 05:21:41;;;;;;;7.93;7.33;;;;;;;16.24;80.60;99244.09;5053116;28;20674;-75
2022/05/24 05:24:09;;;;;;;8.53;7.93;;;;;;;16.08;79.42;99281.03;5052776;28;20713;-76
2022/05/24 05:26:36;;;;;;;8.87;8.33;;;;;;;16.13;79.31;99294.75;5053218;28;20231;-75
2022/05/24 05:29:04;;;;;;;10.07;9.37;;;;;;;16.15;79.91;99298.13;5052449;28;20618;-75
2022/05/24 05:31:29;;;;;;;9.63;8.93;;;;;;;16.17;79.80;99290.97;5053141;28;20258;-76
2022/05/24 05:33:57;;;;;;;8.27;7.77;;;;;;;16.17;80.47;99279.63;5052653;28;20660;-75
2022/05/24 05:36:27;;;;;;;9.03;8.43;;;;;;;16.20;79.86;99282.91;5053058;28;20585;-75
2022/05/24 05:38:54;;;;;;;9.40;8.70;;;;;;;16.22;80.27;99285.47;5052304;28;20720;-75
2022/05/24 05:41:23;;;;;;;10.90;10.03;;;;;;;16.25;80.45;99275.59;5052709;28;20269;-76
2022/05/24 05:43:49;;;;;;;9.77;9.17;;;;;;;16.29;80.26;99284.13;5052513;28;20648;-76
2022/05/24 05:46:17;;;;;;;10.17;9.47;;;;;;;16.32;79.64;99302.38;5051368;28;20201;-76
2022/05/24 05:48:44;;;;;;;11.10;10.33;;;;;;;16.39;79.81;99316.88;5052165;28;20290;-75
2022/05/24 05:51:12;;;;;;;11.13;10.33;;;;;;;16.46;80.59;99283.09;5052344;28;20265;-75
2022/05/24 05:53:41;;;;;;;12.53;11.63;;;;;;;16.54;80.81;99282.63;5052768;28;20228;-76
2022/05/24 05:56:09;;;;;;;11.80;11.00;;;;;;;16.57;80.00;99300.88;5050485;28;20200;-76
2022/05/24 05:58:36;;;;;;;11.50;10.63;;;;;;;16.60;80.12;99291.00;5045928;28;20201;-76
2022/05/24 06:01:02;;;;;;;11.53;10.63;;;;;;;16.60;80.44;99296.25;5041406;28;20211;-75
2022/05/24 06:03:30;;;;;;;12.53;11.50;;;;;;;16.47;79.48;99326.94;5042963;28;20224;-75
2022/05/24 06:06:00;;;;;;;13.37;12.47;;;;;;;16.40;79.38;99337.00;5040999;28;20667;-75
2022/05/24 06:08:27;;;;;;;13.83;12.83;;;;;;;16.54;80.05;99325.63;5040967;28;20346;-75
2022/05/24 06:10:55;;;;;;;13.77;12.87;;;;;;;16.43;79.27;99338.59;5042614;28;20307;-75
2022/05/24 06:13:22;;;;;;;13.13;12.13;;;;;;;16.34;79.35;99349.72;5044566;28;20236;-76
2022/05/24 06:15:51;;;;;;;11.97;11.07;;;;;;;16.26;79.64;99331.72;5048013;28;20353;-76
2022/05/24 06:18:18;;;;;;;11.30;10.60;;;;;;;16.16;80.45;99318.28;5042606;28;20654;-74
2022/05/24 06:20:44;;;;;;;12.40;11.30;;;;;;;16.43;80.48;99304.34;5041636;28;20251;-75
2022/05/24 06:23:11;;;;;;;13.23;12.13;;;;;;;16.53;80.32;99321.31;5043224;28;20244;-73
2022/05/24 06:25:39;;;;;;;10.63;9.73;;;;;;;16.69;79.70;99326.47;5041176;28;20201;-74
2022/05/24 06:28:09;;;;;;;11.13;10.27;;;;;;;16.73;79.61;99338.53;5040395;28;20891;-74
2022/05/24 06:30:35;;;;;;;10.50;9.73;;;;;;;16.85;79.24;99343.06;5042172;28;20199;-73
2022/05/24 06:33:01;;;;;;;9.50;8.90;;;;;;;16.76;78.59;99369.94;5041359;28;20587;-74
2022/05/24 06:35:28;;;;;;;10.53;9.70;;;;;;;16.87;78.45;99374.59;5040420;28;20204;-74
2022/05/24 06:37:54;;;;;;;9.07;8.47;;;;;;;16.80;78.14;99375.88;5042422;28;20207;-73
2022/05/24 06:40:21;;;;;;;9.63;8.83;;;;;;;17.02;78.31;99378.03;5041093;28;20282;-74
2022/05/24 06:42:48;;;;;;;9.53;8.93;;;;;;;17.04;78.33;99398.09;5042781;28;20362;-74
2022/05/24 06:45:16;;;;;;;9.37;8.70;;;;;;;17.18;77.84;99406.94;5045849;28;20201;-74
2022/05/24 06:47:43;;;;;;;8.60;8.00;;;;;;;17.20;77.63;99418.22;5043302;28;20281;-73
2022/05/24 06:50:11;;;;;;;8.63;8.00;;;;;;;17.19;76.95;99449.03;5041715;28;20208;-73
2022/05/24 06:52:37;;;;;;;8.83;8.17;;;;;;;17.16;77.33;99449.22;5040387;28;20244;-73
2022/05/24 06:55:04;;;;;;;8.50;7.90;;;;;;;17.20;76.37;99456.00;5040704;28;20205;-73
2022/05/24 06:57:31;;;;;;;8.77;8.17;;;;;;;17.01;76.51;99460.72;5042599;28;20200;-73
2022/05/24 07:02:43;;;;;;;8.73;8.03;;;;;;;17.22;77.60;99426.91;5042124;28;20230;-73
2022/05/24 07:05:13;;;;;;;8.73;8.13;;;;;;;17.39;78.08;99413.50;5034465;28;20817;-73
2022/05/24 07:07:40;;;;;;;8.43;7.80;;;;;;;17.44;76.43;99450.13;5035451;28;20220;-74
2022/05/24 07:10:10;;;;;;;7.30;6.80;;;;;;;17.44;75.99;99477.38;5034264;28;20668;-74
2022/05/24 07:12:37;;;;;;;7.07;6.67;;;;;;;17.37;75.70;99501.59;5036198;28;20236;-74
2022/05/24 07:15:04;;;;;;;7.50;6.90;;;;;;;17.54;75.88;99484.69;5054906;28;20249;-74
2022/05/24 07:17:31;;;;;;;8.07;7.20;;;;;;;17.58;75.54;99488.81;5055621;28;20251;-74
2022/05/24 07:19:58;;;;;;;7.20;6.70;;;;;;;17.46;76.55;99464.94;5055122;28;20213;-74
2022/05/24 07:22:25;;;;;;;7.37;6.77;;;;;;;17.53;75.44;99501.47;5055542;28;20210;-74
2022/05/24 07:24:51;;;;;;;7.17;6.57;;;;;;;17.33;75.00;99529.13;5055651;28;20209;-74
2022/05/24 07:27:20;;;;;;;7.87;7.20;;;;;;;17.34;74.99;99525.50;5055063;28;20228;-74
2022/05/24 07:29:47;;;;;;;7.50;7.00;;;;;;;17.31;75.08;99521.28;5054718;28;20215;-76
2022/05/24 07:32:13;;;;;;;7.80;7.20;;;;;;;17.30;75.45;99509.03;5055248;28;20240;-74
2022/05/24 07:34:40;;;;;;;7.87;7.27;;;;;;;17.42;75.67;99503.00;5055238;28;20283;-74
2022/05/24 07:37:13;;;;;;;7.93;7.43;;;;;;;17.52;74.58;99519.13;5055030;28;20216;-74
2022/05/24 07:39:39;;;;;;;7.60;7.20;;;;;;;17.60;75.67;99492.22;5055039;28;20227;-74
2022/05/24 07:47:31;;;;;;;7.33;6.83;;;;;;;17.61;73.85;99555.47;5054301;28;20223;-75
2022/05/24 07:49:58;;;;;;;8.67;8.07;;;;;;;17.64;74.45;99536.81;5054783;28;20285;-73
2022/05/24 07:52:26;;;;;;;8.00;7.40;;;;;;;17.71;74.94;99524.06;5054599;28;20212;-73
2022/05/24 07:54:52;;;;;;;8.53;7.93;;;;;;;17.73;75.18;99508.13;5054736;28;20542;-73
2022/05/24 07:57:19;;;;;;;8.27;7.67;;;;;;;17.36;75.63;99515.72;5054991;28;20205;-73
2022/05/24 07:59:47;;;;;;;7.50;7.00;;;;;;;17.50;75.63;99499.03;5054046;28;20743;-74
2022/05/24 08:02:14;;;;;;;8.23;7.53;;;;;;;17.20;76.96;99474.44;5054668;28;20212;-74
2022/05/24 08:04:40;;;;;;;8.20;7.60;;;;;;;17.03;77.53;99446.50;5042739;28;20233;-74
2022/05/24 08:07:07;;;;;;;9.03;8.43;;;;;;;17.19;78.01;99432.38;5044601;28;20204;-74
2022/05/24 08:09:35;;;;;;;8.17;7.67;;;;;;;17.20;78.09;99434.91;5042613;28;20269;-74
2022/05/24 08:12:01;;;;;;;8.27;7.47;;;;;;;17.23;78.48;99426.81;5042932;28;20579;-75
2022/05/24 08:14:28;;;;;;;8.43;7.93;;;;;;;17.25;80.37;99403.81;5051538;28;20227;-76
2022/05/24 08:16:55;;;;;;;10.67;9.77;;;;;;;16.60;83.76;99370.03;5050669;28;20204;-77
2022/05/24 08:19:21;;;;;;;8.17;7.47;;;;;;;15.21;87.65;99219.44;5042091;28;20252;-78
2022/05/24 08:21:48;;;;;;;8.23;7.63;;;;;;;14.38;92.13;99100.66;5043914;28;20260;-77
2022/05/24 08:24:16;;;;;;;8.83;8.13;;;;;;;14.26;95.02;99033.09;5044469;28;20652;-75
2022/05/24 08:26:44;;;;;;;10.00;9.10;;;;;;;14.38;96.12;99007.94;5044410;28;20288;-76
2022/05/24 08:29:10;;;;;;;8.73;8.13;;;;;;;14.40;95.87;99020.03;5044517;28;20265;-77
2022/05/24 08:31:37;;;;;;;8.43;7.83;;;;;;;14.29;96.31;99033.78;5044309;28;20212;-76
2022/05/24 08:34:03;;;;;;;9.30;8.60;;;;;;;14.02;97.27;99043.19;5047048;28;20715;-76
2022/05/24 08:36:30;;;;;;;6.00;5.60;;;;;;;13.95;95.14;99081.19;5043616;28;20198;-76
2022/05/24 08:38:56;;;;;;;4.00;3.80;;;;;;;13.84;92.53;99139.50;5045205;28;20272;-76
2022/05/24 08:41:36;;;;;;;3.30;3.10;;;;;;;13.59;91.41;99189.75;5044362;28;20214;-75
2022/05/24 08:49:58;;;;;;;3.47;3.27;;;;;;;13.44;93.28;99168.63;5044385;28;20190;-75
2022/05/24 08:52:29;;;;;;;4.83;3.20;;;;;;;13.38;93.95;99149.75;5039722;28;20226;-75
2022/05/24 08:54:59;;;;;;;4.63;3.50;;;;;;;13.31;94.35;99160.53;5044915;28;20260;-78
2022/05/24 08:57:37;;;;;;;3.80;3.50;;;;;;;13.28;94.98;99150.19;5045049;28;20200;-76
2022/05/24 09:00:08;;;;;;;4.00;3.70;;;;;;;13.39;96.10;99138.34;5044916;28;20699;-76
2022/05/24 09:02:36;;;;;;;6.00;3.57;;;;;;;13.39;95.41;99147.06;5042310;28;20198;-76
2022/05/24 09:05:02;;;;;;;3.93;3.70;;;;;;;13.40;95.21;99158.38;5043861;28;20197;-75
2022/05/24 09:07:38;;;;;;;4.47;4.03;;;;;;;13.33;96.30;99149.97;5043998;28;20204;-75
2022/05/24 09:10:10;;;;;;;3.27;3.07;;;;;;;13.19;95.38;99155.06;5043822;28;20190;-75
2022/05/24 09:12:50;;;;;;;3.80;3.50;;;;;;;13.00;95.89;99171.69;5043918;28;20225;-75
2022/05/24 09:15:26;;;;;;;3.73;3.43;;;;;;;12.95;96.56;99157.97;5051256;28;20275;-76
2022/05/24 09:18:08;;;;;;;3.70;3.40;;;;;;;13.13;96.37;99134.41;5043760;28;20238;-75
2022/05/24 09:20:38;;;;;;;3.47;3.27;;;;;;;13.19;96.63;99126.22;5043535;28;20205;-77
2022/05/24 09:23:13;;;;;;;3.70;3.40;;;;;;;13.35;94.29;99157.78;5042903;28;20775;-77
2022/05/24 09:25:54;;;;;;;4.33;3.10;;;;;;;13.33;95.14;99188.47;5043487;28;20212;-75
2022/05/24 09:28:20;;;;;;;3.73;3.53;;;;;;;13.44;95.32;99201.88;5043284;28;20316;-76
2022/05/24 09:30:48;;;;;;;3.90;3.60;;;;;;;13.63;94.93;99207.84;5041332;28;20236;-75
2022/05/24 09:33:22;;;;;;;3.70;3.50;;;;;;;13.68;93.38;99241.72;5041819;28;20303;-75
2022/05/24 09:35:51;;;;;;;3.67;3.00;;;;;;;13.70;93.46;99253.00;5043544;28;20282;-75
2022/05/24 09:38:22;;;;;;;2.90;2.70;;;;;;;13.67;92.31;99272.31;5043302;28;20217;-75
2022/05/24 09:40:53;;;;;;;2.63;2.43;;;;;;;13.41;90.83;99319.97;5041934;28;20194;-74
2022/05/24 09:43:26;;;;;;;2.77;2.40;;;;;;;13.50;91.16;99337.88;5044862;28;20228;-74
2022/05/24 09:45:58;;;;;;;2.97;2.73;;;;;;;13.43;91.59;99323.38;5049595;28;20746;-74
2022/05/24 09:48:28;;;;;;;2.80;2.50;;;;;;;13.58;89.75;99345.38;5043016;28;20228;-76
2022/05/24 09:50:56;;;;;;;2.70;2.50;;;;;;;13.37;90.34;99358.59;5042508;28;20213;-75
2022/05/24 09:53:27;;;;;;;2.50;2.40;;;;;;;13.37;91.01;99348.09;5043069;28;20263;-75
2022/05/24 09:55:59;;;;;;;2.90;2.70;;;;;;;13.52;90.93;99341.28;5042615;28;20230;-75
2022/05/24 09:58:32;;;;;;;2.90;2.60;;;;;;;13.51;89.67;99355.31;5043108;28;20197;-75
2022/05/24 10:01:02;;;;;;;2.33;2.13;;;;;;;13.63;89.58;99380.91;5042641;28;20255;-74
2022/05/24 10:03:33;;;;;;;2.60;2.40;;;;;;;13.81;88.88;99396.69;5041468;28;20218;-75
2022/05/24 10:06:08;;;;;;;3.10;2.50;;;;;;;13.95;89.17;99396.00;5040772;28;20599;-74
2022/05/24 10:08:37;;;;;;;2.50;2.37;;;;;;;13.81;87.51;99452.63;5040628;28;20274;-75
2022/05/24 10:11:06;;;;;;;2.73;2.53;;;;;;;13.85;87.17;99466.44;5040966;28;20198;-74
2022/05/24 10:13:42;;;;;;;3.13;2.93;;;;;;;13.94;86.57;99494.03;5045060;28;20643;-75
2022/05/24 10:16:22;;;;;;;2.70;2.50;;;;;;;14.04;86.99;99477.75;5048994;28;20221;-74
2022/05/24 10:19:12;;;;;;;2.73;2.53;;;;;;;14.05;86.26;99503.09;5042217;28;20263;-74
2022/05/24 10:21:44;;;;;;;3.67;3.07;;;;;;;14.24;85.56;99503.00;5042693;28;20206;-74
2022/05/24 10:24:29;;;;;;;3.00;2.70;;;;;;;14.18;84.40;99553.19;5041338;28;20309;-74
2022/05/24 10:27:01;;;;;;;3.20;3.00;;;;;;;14.47;85.96;99501.88;5042521;28;20206;-75
2022/05/24 10:29:42;;;;;;;3.60;3.30;;;;;;;14.42;83.88;99559.00;5043674;28;20221;-75
2022/05/24 10:38:19;;;;;;;3.50;3.20;;;;;;;15.16;82.90;99589.50;5042165;28;20284;-74
2022/05/24 10:40:54;;;;;;;3.70;3.40;;;;;;;15.34;82.41;99600.88;5039473;28;20226;-74
2022/05/24 10:43:41;;;;;;;3.90;3.60;;;;;;;15.41;80.25;99670.59;5039116;28;20232;-74
2022/05/24 10:46:14;;;;;;;3.90;3.60;;;;;;;15.23;80.08;99713.63;5051232;28;20709;-74
2022/05/24 10:48:48;;;;;;;4.60;4.30;;;;;;;15.63;82.62;99624.78;5051266;28;20562;-74
2022/05/24 10:51:21;;;;;;;3.83;3.53;;;;;;;15.79;80.29;99695.88;5051657;28;20279;-75
2022/05/24 10:53:53;;;;;;;4.93;4.40;;;;;;;15.83;80.40;99698.28;5051519;28;20777;-74
2022/05/24 10:56:32;;;;;;;3.93;3.63;;;;;;;15.86;76.95;99802.56;5039917;28;20203;-75
2022/05/24 10:59:07;;;;;;;4.13;3.83;;;;;;;16.12;78.77;99750.34;5041876;28;20204;-74
2022/05/24 11:01:39;;;;;;;4.40;3.87;;;;;;;16.48;80.17;99694.81;5049406;28;20641;-74
2022/05/24 11:04:13;;;;;;;3.90;3.60;;;;;;;16.12;75.89;99811.72;5044626;28;20219;-76
2022/05/24 11:06:45;;;;;;;3.00;2.73;;;;;;;15.80;75.32;99864.25;5041820;28;20207;-74
2022/05/24 11:09:17;;;;;;;3.57;3.27;;;;;;;15.72;76.86;99813.75;5041986;28;20210;-74
2022/05/24 11:11:49;;;;;;;2.80;2.60;;;;;;;15.81;74.93;99883.50;5042050;28;20208;-74
2022/05/24 11:14:23;;;;;;;3.10;2.90;;;;;;;16.12;75.04;99855.66;5048529;28;20232;-74
2022/05/24 11:16:51;;;;;;;2.30;1.87;;;;;;;16.07;70.68;99950.66;5045627;28;20208;-74
2022/05/24 11:19:22;;;;;;;1.73;1.63;;;;;;;16.36;71.19;100014.19;5040001;28;20341;-74
2022/05/24 11:21:54;;;;;;;2.53;1.97;;;;;;;16.80;72.57;99953.94;5042239;28;20196;-74
2022/05/24 11:24:25;;;;;;;2.53;1.60;;;;;;;16.74;66.81;100059.69;5041767;28;20565;-74
2022/05/24 11:26:55;;;;;;;1.80;1.70;;;;;;;16.93;69.73;100093.94;5041791;28;20203;-74
2022/05/24 11:29:28;;;;;;;2.60;1.70;;;;;;;17.15;69.67;100075.22;5041220;28;20265;-75
2022/05/24 11:32:01;;;;;;;2.90;2.20;;;;;;;18.20;66.11;100148.84;5040951;28;20216;-75
2022/05/24 11:34:32;;;;;;;1.93;1.30;;;;;;;18.20;60.60;100349.66;5041611;28;20216;-75
2022/05/24 11:37:06;;;;;;;1.33;1.23;;;;;;;18.89;61.16;100353.03;5041679;28;20201;-75
2022/05/24 11:39:36;;;;;;;1.40;1.30;;;;;;;18.66;59.85;100389.50;5041458;28;20532;-75
2022/05/24 11:42:24;;;;;;;1.43;1.20;;;;;;;18.93;60.62;100351.94;5041449;28;20335;-74
2022/05/24 11:44:52;;;;;;;1.87;1.53;;;;;;;19.50;59.11;100373.41;5050748;28;20237;-74
2022/05/24 11:47:57;;;;;;;2.03;1.20;;;;;;;19.84;54.93;100401.50;5048962;28;20200;-75
2022/05/24 11:50:41;;;;;;;1.33;0.97;;;;;;;18.56;54.88;100497.53;5045497;28;20222;-74
2022/05/24 11:53:10;;;;;;;1.23;0.77;;;;;;;19.11;57.10;100440.00;5044225;28;20220;-74
2022/05/24 11:56:11;;;;;;;1.13;1.03;;;;;;;19.64;55.80;100434.41;5044682;28;20207;-74
2022/05/24 11:58:54;;;;;;;0.90;0.90;;;;;;;20.53;55.41;100477.88;5045469;28;20185;-76
2022/05/24 12:01:44;;;;;;;4.07;0.90;;;;;;;19.70;57.08;100480.00;5045182;28;20194;-74
2022/05/24 12:10:44;;;;;;;1.67;0.70;;;;;;;21.61;50.04;100541.19;5044874;28;20212;-75
2022/05/24 12:13:54;;;;;;;1.60;0.90;;;;;;;20.21;51.71;100603.41;5036606;28;20229;-75
2022/05/24 12:16:37;;;;;;;1.37;0.93;;;;;;;19.11;54.28;100533.50;5047577;28;20275;-75
2022/05/24 12:19:06;;;;;;;1.37;0.80;;;;;;;19.43;54.38;100462.94;5044840;28;20198;-75